This is the latest recevied weather packets stored in our database for station/object KG5CK-1. If no packets are shown the sender has not sent any weather packets the latest 1 day(s).
| Time | Temp. | Humidity | Pressure | Rain* | Wind** | Luminosity | Snow |
|---|---|---|---|---|---|---|---|
| 1778090943 | 13.89° C | 86% | 1009.1 hPa | 0 mm | 1.79 m/s, 356° | - | - |
| 1778090823 | 13.89° C | 86% | 1009.1 hPa | 0 mm | 1.79 m/s, 356° | - | - |
| 1778090643 | 13.89° C | 87% | 1009.4 hPa | 0 mm | 1.34 m/s, 40° | - | - |
| 1778090583 | 13.89° C | 87% | 1009.4 hPa | 0 mm | 1.34 m/s, 40° | - | - |
| 1778090523 | 13.89° C | 87% | 1009.4 hPa | 0 mm | 1.34 m/s, 40° | - | - |
| 1778090283 | 13.33° C | 87% | 1009.6 hPa | 0 mm | 0.89 m/s, 30° | - | - |
| 1778090223 | 13.33° C | 87% | 1009.6 hPa | 0 mm | 0.89 m/s, 30° | - | - |
| 1778089923 | 13.89° C | 87% | 1009.6 hPa | 0 mm | 0.89 m/s, 353° | - | - |
| 1778089863 | 13.89° C | 87% | 1009.6 hPa | 0 mm | 0.89 m/s, 353° | - | - |
| 1778089743 | 13.33° C | 89% | 1009.9 hPa | 0 mm | 0 m/s | - | - |
| 1778089563 | 13.33° C | 89% | 1009.9 hPa | 0 mm | 0 m/s | - | - |
| 1778089443 | 12.78° C | 89% | 1010.1 hPa | 0 mm | 0.89 m/s, 75° | - | - |
| 1778089383 | 12.78° C | 89% | 1010.1 hPa | 0 mm | 0.89 m/s, 75° | - | - |
| 1778089323 | 12.78° C | 89% | 1010.1 hPa | 0 mm | 0.89 m/s, 75° | - | - |
| 1778089143 | 12.78° C | 89% | 1009.9 hPa | 0 mm | 0.89 m/s, 71° | - | - |
| 1778089023 | 12.78° C | 89% | 1009.9 hPa | 0 mm | 0.89 m/s, 71° | - | - |
| 1778088843 | 12.78° C | 89% | 1010.1 hPa | 0 mm | 0.89 m/s, 46° | - | - |
| 1778088783 | 12.78° C | 89% | 1010.1 hPa | 0 mm | 0.89 m/s, 46° | - | - |
| 1778088723 | 12.78° C | 89% | 1010.1 hPa | 0 mm | 0.89 m/s, 46° | - | - |
| 1778088663 | 12.78° C | 89% | 1010.1 hPa | 0 mm | 0.89 m/s, 46° | - | - |
| 1778088603 | 12.78° C | 90% | 1010 hPa | 0 mm | 0.45 m/s, 70° | - | - |
| 1778088423 | 12.78° C | 90% | 1010 hPa | 0 mm | 0.45 m/s, 70° | - | - |
| 1778088123 | 12.78° C | 91% | 1009.9 hPa | 0 mm | 0 m/s | - | - |
| 1778087943 | 12.78° C | 91% | 1010.2 hPa | 0 mm | 0.89 m/s, 43° | - | - |
| 1778087883 | 12.78° C | 91% | 1010.2 hPa | 0 mm | 0.89 m/s, 43° | - | - |
* Rain latest hour (hover to see other rain measurements)
** Current wind speed in m/s (hover to see current wind gust speed)